createdAt,value
2023-03-05T09:09:41.299Z,39.15
2023-03-05T09:12:12.190Z,35.65
2023-03-05T09:14:40.360Z,38.78
2023-03-05T09:17:08.410Z,35.33
2023-03-05T09:19:36.416Z,35.80
2023-03-05T09:22:04.349Z,39.03
2023-03-05T13:24:38.812Z,31.02
2023-03-05T13:27:21.123Z,28.30
2023-03-05T13:29:53.282Z,22.42
2023-03-05T13:32:27.058Z,23.33
2023-03-05T13:34:57.587Z,26.80
2023-03-05T13:37:27.826Z,29.52
2023-03-05T13:39:59.664Z,28.38
2023-03-05T13:42:30.029Z,26.02
2023-03-05T13:44:59.368Z,30.67
2023-03-05T13:47:33.416Z,24.27
2023-03-05T13:50:04.793Z,22.75
2023-03-05T13:52:34.298Z,18.23
2023-03-05T13:55:05.384Z,27.27
2023-03-05T13:57:39.894Z,25.80
2023-03-05T14:00:25.672Z,25.77
2023-03-05T14:02:54.106Z,23.02
2023-03-05T14:05:22.166Z,25.15
2023-03-05T14:07:51.516Z,26.75
2023-03-05T14:10:35.686Z,25.92
2023-03-05T14:13:06.183Z,28.40
2023-03-05T14:15:35.754Z,27.27
2023-03-05T14:18:19.044Z,23.65
2023-03-05T14:21:05.583Z,28.67
2023-03-05T14:23:37.112Z,25.17
2023-03-05T14:26:37.059Z,19.42
2023-03-05T14:29:14.901Z,28.65
2023-03-05T14:31:49.688Z,30.25
2023-03-05T14:34:23.165Z,27.55
2023-03-05T14:36:52.530Z,25.20
2023-03-05T14:39:40.841Z,26.55
2023-03-05T14:42:32.544Z,26.17
2023-03-05T14:45:01.962Z,22.83
2023-03-05T14:47:30.166Z,24.70
2023-03-05T14:49:57.976Z,28.48
2023-03-05T14:52:27.235Z,28.13
2023-03-05T14:54:56.097Z,26.88
2023-03-05T14:57:29.252Z,24.73
2023-03-05T14:59:58.377Z,23.48
2023-03-05T15:02:27.906Z,28.15
2023-03-05T15:04:55.761Z,22.00
2023-03-05T15:07:27.673Z,23.17
2023-03-05T15:09:55.487Z,24.30
2023-03-05T15:12:24.671Z,21.50
2023-03-05T15:14:53.422Z,25.75
2023-03-05T15:17:24.885Z,20.58
2023-03-05T15:19:53.755Z,19.73
2023-03-05T15:22:21.606Z,18.67
2023-03-05T15:24:49.549Z,17.27
2023-03-05T15:27:17.357Z,18.08
2023-03-05T15:29:45.335Z,19.95
2023-03-05T15:32:13.215Z,20.77
2023-03-05T15:34:42.498Z,20.27
2023-03-05T15:37:10.452Z,19.73
2023-03-05T15:39:38.355Z,19.85
2023-03-05T15:42:06.693Z,19.08
2023-03-05T15:44:34.676Z,18.80
2023-03-05T15:47:02.531Z,17.50
2023-03-05T15:49:30.390Z,17.02
2023-03-05T15:51:59.544Z,25.00
2023-03-05T15:54:27.721Z,19.30
2023-03-05T15:56:55.631Z,19.42
